EW1134 Oinofyta GR current weather conditions

sailwx.info

Wind from 061 at 2 knots gusting 6

Air temperature 16.1° C
Dewpoint 11.5° C

Last reported at 2019-Dec-09 13:05 UTC.
Time now 2019-Dec-09 13:33 UTC

Location: N 38°19' E 023°39'.
View on Google Maps.

See reports from other nearby stations

  
Tides and Currents Weather Stations Pressure Air Temp Water Temp Dewpoint Dewpoint Depression Visibility Wind Speed Wind Dir Waves Ship Positions
date/time (UTC)wind fromknots sea level pressurealtimeterstation pressurevisibilityair tempwater tempwave heightnotes
2019-Dec-09 13:05 061 2 gusting 6 16.1
2019-Dec-09 13:00 055 2 gusting 6 16.1
2019-Dec-09 12:55 081 2 gusting 6 16.1
2019-Dec-09 12:50 080 2 gusting 6 16.1
2019-Dec-09 12:45 066 2 gusting 5 16.1
2019-Dec-09 12:40 058 2 gusting 5 16.1
2019-Dec-09 12:35 057 2 gusting 5 15.6
2019-Dec-09 12:30 056 2 gusting 6 15.6
2019-Dec-09 12:25 048 2 gusting 6 15.6
2019-Dec-09 12:20 053 2 gusting 5 15.6
2019-Dec-09 12:15 053 2 gusting 5 15.6
2019-Dec-09 12:10 045 2 gusting 6 15.6
2019-Dec-09 12:05 046 1 gusting 6 16.1
2019-Dec-09 12:00 047 1 gusting 6 16.1
2019-Dec-09 11:55 064 2 gusting 6 16.1
2019-Dec-09 11:50 054 3 gusting 6 16.1
2019-Dec-09 11:45 040 4 gusting 9 16.1
2019-Dec-09 11:40 056 4 gusting 9 16.1
2019-Dec-09 11:35 068 3 gusting 6 16.1
2019-Dec-09 11:30 053 2 gusting 6 16.7
2019-Dec-09 11:25 038 2 gusting 6 16.7
2019-Dec-09 11:20 031 2 gusting 6 16.7
2019-Dec-09 11:15 033 3 gusting 6 16.7
2019-Dec-09 11:10 027 3 gusting 6 16.1
2019-Dec-09 11:05 035 3 gusting 6 16.7
2019-Dec-09 11:00 058 2 gusting 6 16.1
2019-Dec-09 10:55 060 2 gusting 6 16.1
2019-Dec-09 10:50 059 2 gusting 5 16.1
2019-Dec-09 10:45 030 2 gusting 6 16.1
2019-Dec-09 10:40 020 1 gusting 6 16.1
2019-Dec-09 10:35 058 1 gusting 4 16.1
2019-Dec-09 10:30 078 0 gusting 3 16.1
2019-Dec-09 10:25 106 1 gusting 3 16.1
2019-Dec-09 10:20 125 0 gusting 3 16.1
2019-Dec-09 10:15 112 0 gusting 3 16.1
2019-Dec-09 10:10 132 0 gusting 2 16.1
2019-Dec-09 10:05 159 0 gusting 2 15.6
2019-Dec-09 10:00 163 0 gusting 2 15.6
2019-Dec-09 09:55 157 0 gusting 2 15.6
2019-Dec-09 09:50 145 0 gusting 2 15.6
2019-Dec-09 09:45 137 0 gusting 1 15.0
2019-Dec-09 09:40 147 0 gusting 3 15.0
2019-Dec-09 09:35 155 0 gusting 3 15.0
2019-Dec-09 09:30 134 0 gusting 3 14.4
2019-Dec-09 09:25 103 0 gusting 2 14.4
2019-Dec-09 09:20 096 0 gusting 2 13.9
2019-Dec-09 09:15 152 13.9
2019-Dec-09 09:10 166 13.3
2019-Dec-09 09:05 161 13.3
2019-Dec-09 09:00 152 0 gusting 3 12.8
2019-Dec-09 08:55 133 0 gusting 3 12.2
2019-Dec-09 08:50 094 0 gusting 3 12.2
2019-Dec-09 08:45 067 0 gusting 2 12.2
2019-Dec-09 08:40 082 0 gusting 2 12.2
2019-Dec-09 08:35 128 11.7
2019-Dec-09 08:30 192 11.7
2019-Dec-09 08:25 230 11.7
2019-Dec-09 08:20 189 11.1
2019-Dec-09 08:15 069 10.6
2019-Dec-09 08:10 083 10.6
2019-Dec-09 08:05 197 10.0
2019-Dec-09 08:00 204 0 gusting 2 10.0
2019-Dec-09 07:55 204 0 gusting 2 9.4
2019-Dec-09 07:50 205 9.4
2019-Dec-09 07:45 200 8.9
2019-Dec-09 07:40 190 8.9
2019-Dec-09 07:35 208 0 gusting 1 8.3
2019-Dec-09 07:30 229 0 gusting 1 8.3
2019-Dec-09 07:25 253 7.8
2019-Dec-09 07:20 264 7.8
2019-Dec-09 07:15 253 0 gusting 3 7.2
2019-Dec-09 07:10 265 0 gusting 3 7.2
2019-Dec-09 07:05 255 0 gusting 3 6.7
2019-Dec-09 07:00 244 0 gusting 3 6.7
2019-Dec-09 06:55 241 0 gusting 2 6.1
2019-Dec-09 06:50 234 0 gusting 2 6.1
2019-Dec-09 06:45 247 0 gusting 2 6.1
2019-Dec-09 06:40 243 0 gusting 2 5.6
2019-Dec-09 06:35 231 0 gusting 1 5.6
2019-Dec-09 06:30 222 0 gusting 1 5.6
2019-Dec-09 06:25 214 0 gusting 1 5.0
2019-Dec-09 06:20 207 5.0
2019-Dec-09 06:15 200 5.0
2019-Dec-09 06:10 202 5.0
2019-Dec-09 06:05 224 0 gusting 3 5.0
2019-Dec-09 06:00 243 0 gusting 3 5.0
2019-Dec-09 05:55 277 4.4
2019-Dec-09 05:50 263 0 gusting 2 4.4
2019-Dec-09 05:45 225 0 gusting 2 3.9
2019-Dec-09 05:40 220 0 gusting 3 4.4
2019-Dec-09 05:35 219 0 gusting 3 4.4
2019-Dec-09 05:30 216 0 gusting 3 4.4
2019-Dec-09 05:25 227 0 gusting 1 4.4
2019-Dec-09 05:20 227 0 gusting 3 4.4
2019-Dec-09 05:15 224 1 gusting 3 4.4
2019-Dec-09 05:10 228 1 gusting 3 5.0
2019-Dec-09 05:05 215 0 gusting 3 5.0
2019-Dec-09 05:00 220 5.0
2019-Dec-09 04:55 291 5.0
2019-Dec-09 04:50 281 5.0
2019-Dec-09 04:45 255 0 gusting 4 5.0
2019-Dec-09 04:40 249 1 gusting 4 5.0
2019-Dec-09 04:35 235 1 gusting 4 5.0
2019-Dec-09 04:30 233 1 gusting 4 5.0
2019-Dec-09 04:25 236 1 gusting 3 5.6
2019-Dec-09 04:20 256 1 gusting 3 5.6
2019-Dec-09 04:15 271 1 gusting 3 5.0
2019-Dec-09 04:10 271 1 gusting 4 5.0
2019-Dec-09 04:05 263 0 gusting 4 5.0
2019-Dec-09 04:00 245 5.0
2019-Dec-09 03:55 248 5.0
2019-Dec-09 03:50 249 5.0
2019-Dec-09 03:45 231 5.0
2019-Dec-09 03:40 294 5.0
2019-Dec-09 03:35 267 0 gusting 3 5.6
2019-Dec-09 03:30 253 1 gusting 3 5.6
2019-Dec-09 03:25 234 0 gusting 3 5.6
2019-Dec-09 03:20 228 5.6
2019-Dec-09 03:15 279 5.6
2019-Dec-09 03:10 308 5.6
2019-Dec-09 03:05 225 5.6
2019-Dec-09 03:00 156 5.6
2019-Dec-09 02:55 259 0 gusting 3 5.6
2019-Dec-09 02:50 256 1 gusting 3 5.6
2019-Dec-09 02:45 253 0 gusting 3 5.6
2019-Dec-09 02:40 250 0 gusting 3 5.6
2019-Dec-09 02:35 235 1 gusting 5 5.6
2019-Dec-09 02:30 233 1 gusting 5 5.6
2019-Dec-09 02:25 244 1 gusting 5 5.6
2019-Dec-09 02:20 249 1 gusting 5 5.6
2019-Dec-09 02:15 240 0 gusting 5 5.6
2019-Dec-09 02:10 270 5.6
2019-Dec-09 02:05 251 0 gusting 2 5.6
2019-Dec-09 02:00 234 0 gusting 3 5.6
2019-Dec-09 01:55 233 1 gusting 6 5.6
2019-Dec-09 01:50 247 2 gusting 6 5.6
2019-Dec-09 01:45 255 2 gusting 6 5.6
2019-Dec-09 01:40 257 2 gusting 6 5.6
2019-Dec-09 01:35 262 1 gusting 6 5.6
2019-Dec-09 01:30 269 1 gusting 5 5.6
2019-Dec-09 01:25 243 1 gusting 4 5.6
2019-Dec-09 01:20 224 1 gusting 5 5.6
2019-Dec-09 01:15 247 2 gusting 5 5.6
2019-Dec-09 01:10 260 1 gusting 5 5.6
2019-Dec-09 01:05 260 0 gusting 3 6.1
2019-Dec-09 01:00 266 0 gusting 3 6.1
2019-Dec-09 00:55 254 6.1
2019-Dec-09 00:50 218 6.1
2019-Dec-09 00:45 192 6.1
2019-Dec-09 00:40 181 5.6
2019-Dec-09 00:35 5.6
2019-Dec-09 00:30 5.6
2019-Dec-09 00:25 310 5.6
2019-Dec-09 00:20 260 6.1
2019-Dec-09 00:15 239 6.1
2019-Dec-09 00:10 241 0 gusting 2 6.1
2019-Dec-09 00:05 229 1 gusting 3 6.1
2019-Dec-09 00:00 230 1 gusting 3 6.1
2019-Dec-08 23:55 243 0 gusting 3 6.1
2019-Dec-08 23:50 263 6.1
2019-Dec-08 23:45 247 0 gusting 2 6.1
2019-Dec-08 23:40 212 0 gusting 3 6.1
2019-Dec-08 23:35 235 0 gusting 3 6.7
2019-Dec-08 23:30 249 0 gusting 3 6.7
2019-Dec-08 23:25 231 0 gusting 3 6.7
2019-Dec-08 23:20 226 0 gusting 3 6.7
2019-Dec-08 23:15 235 1 gusting 3 7.2
2019-Dec-08 23:10 235 1 gusting 4 7.2
2019-Dec-08 23:05 243 1 gusting 4 7.2
2019-Dec-08 23:00 270 1 gusting 4 7.2
2019-Dec-08 22:55 266 1 gusting 3 7.2
2019-Dec-08 22:50 247 0 gusting 3 7.2
2019-Dec-08 22:45 254 0 gusting 2 7.2
2019-Dec-08 22:40 262 0 gusting 2 7.2
2019-Dec-08 22:35 271 7.2
2019-Dec-08 22:30 270 7.2
2019-Dec-08 22:25 261 7.2
2019-Dec-08 22:20 242 7.2
2019-Dec-08 22:15 135 7.2
2019-Dec-08 22:10 135 7.2
2019-Dec-08 22:05 156 7.2
2019-Dec-08 22:00 216 0 gusting 2 7.8
2019-Dec-08 21:55 225 0 gusting 3 7.8
2019-Dec-08 21:50 234 0 gusting 3 7.8
2019-Dec-08 21:45 262 7.2
2019-Dec-08 21:40 249 7.8
2019-Dec-08 21:35 135 7.8
2019-Dec-08 21:30 314 7.8
2019-Dec-08 21:25 285 7.8
2019-Dec-08 21:20 183 7.8
2019-Dec-08 21:15 086 7.8
2019-Dec-08 21:10 268 0 gusting 3 7.8
2019-Dec-08 21:05 246 0 gusting 3 7.8
2019-Dec-08 21:00 241 0 gusting 3 8.3
2019-Dec-08 20:55 227 0 gusting 3 8.3
2019-Dec-08 20:50 238 0 gusting 3 8.3
2019-Dec-08 20:45 254 1 gusting 3 8.3
2019-Dec-08 20:40 251 1 gusting 5 8.3
2019-Dec-08 20:35 250 0 gusting 5 8.3
2019-Dec-08 20:30 242 0 gusting 3 8.3
2019-Dec-08 20:25 254 0 gusting 3 8.3
2019-Dec-08 20:20 280 0 gusting 3 8.3
2019-Dec-08 20:15 267 0 gusting 4 8.3
2019-Dec-08 20:10 235 1 gusting 4 8.9
2019-Dec-08 20:05 208 0 gusting 3 8.9
2019-Dec-08 20:00 201 0 gusting 3 8.9
2019-Dec-08 19:55 219 1 gusting 3 8.9
2019-Dec-08 19:50 241 1 gusting 3 8.9
2019-Dec-08 19:45 253 1 gusting 3 8.9
2019-Dec-08 19:40 243 0 gusting 3 8.9
2019-Dec-08 19:35 233 0 gusting 2 8.9
2019-Dec-08 19:30 230 0 gusting 3 8.9
2019-Dec-08 19:25 236 1 gusting 3 8.9
2019-Dec-08 19:20 256 0 gusting 3 8.9
2019-Dec-08 19:15 261 0 gusting 3 9.4
2019-Dec-08 19:10 249 0 gusting 2 9.4
2019-Dec-08 19:05 260 0 gusting 2 9.4
2019-Dec-08 19:00 270 0 gusting 2 9.4
2019-Dec-08 18:55 272 0 gusting 2 9.4
2019-Dec-08 18:50 272 0 gusting 2 9.4
2019-Dec-08 18:45 271 9.4
2019-Dec-08 18:40 221 9.4
2019-Dec-08 18:35 110 9.4
2019-Dec-08 18:30 099 0 gusting 2 9.4
2019-Dec-08 18:25 209 0 gusting 3 9.4
2019-Dec-08 18:20 221 1 gusting 3 10.0
2019-Dec-08 18:15 239 0 gusting 2 10.0
2019-Dec-08 18:10 255 0 gusting 3 10.0
2019-Dec-08 18:05 239 1 gusting 3 10.0
2019-Dec-08 18:00 228 0 gusting 3 10.0
2019-Dec-08 17:55 222 0 gusting 2 10.0
2019-Dec-08 17:50 230 10.6
2019-Dec-08 17:45 256 10.6
2019-Dec-08 17:40 253 0 gusting 2 10.6
2019-Dec-08 17:35 241 0 gusting 2 10.6
2019-Dec-08 17:30 237 0 gusting 2 10.6
2019-Dec-08 17:25 229 1 gusting 3 10.6
2019-Dec-08 17:20 221 1 gusting 3 11.1
2019-Dec-08 17:15 220 1 gusting 3 11.1
2019-Dec-08 17:10 233 1 gusting 4 11.7
2019-Dec-08 17:05 231 1 gusting 4 11.7
2019-Dec-08 17:00 234 0 gusting 4 12.2
2019-Dec-08 16:55 268 12.2
2019-Dec-08 16:50 250 0 gusting 3 12.2
2019-Dec-08 16:45 233 1 gusting 3 12.2
2019-Dec-08 16:40 226 1 gusting 3 12.2
2019-Dec-08 16:35 228 1 gusting 3 12.2
2019-Dec-08 16:30 254 0 gusting 3 12.8
2019-Dec-08 16:25 291 0 gusting 2 12.8
2019-Dec-08 16:20 004 0 gusting 5 13.3
2019-Dec-08 16:15 035 1 gusting 5 13.3
2019-Dec-08 16:10 035 1 gusting 4 13.3
2019-Dec-08 16:05 019 1 gusting 4 13.3
2019-Dec-08 16:00 012 1 gusting 4 13.3
2019-Dec-08 15:55 002 1 gusting 5 13.3
2019-Dec-08 15:50 003 1 gusting 5 13.3
2019-Dec-08 15:45 008 1 gusting 4 13.3
2019-Dec-08 15:40 004 1 gusting 4 13.3
2019-Dec-08 15:35 006 1 gusting 3 13.9
2019-Dec-08 15:30 005 1 gusting 4 13.9
2019-Dec-08 15:25 010 1 gusting 4 13.9
2019-Dec-08 15:20 012 1 gusting 4 13.9
2019-Dec-08 15:15 004 1 gusting 3 13.9
2019-Dec-08 15:10 008 1 gusting 3 14.4
2019-Dec-08 15:05 020 1 gusting 4 14.4
2019-Dec-08 15:00 019 1 gusting 4 15.0
2019-Dec-08 14:55 026 1 gusting 5 15.0
2019-Dec-08 14:50 030 2 gusting 5 15.0
2019-Dec-08 14:45 017 2 gusting 5 15.0
2019-Dec-08 14:40 027 1 gusting 5 15.6
2019-Dec-08 14:35 035 2 gusting 5 15.6
2019-Dec-08 14:30 020 2 gusting 6 15.6
2019-Dec-08 14:25 013 2 gusting 6 15.6
2019-Dec-08 14:20 357 2 gusting 6 16.1
2019-Dec-08 14:15 001 2 gusting 7 16.1
2019-Dec-08 14:10 013 2 gusting 7 16.1
2019-Dec-08 14:05 020 2 gusting 7 16.7
2019-Dec-08 14:00 027 3 gusting 7 16.7
2019-Dec-08 13:55 027 2 gusting 7 16.7
2019-Dec-08 13:50 356 2 gusting 6 16.7
2019-Dec-08 13:45 335 3 gusting 7 16.7
2019-Dec-08 13:40 330 3 gusting 7 16.7
2019-Dec-08 13:35 352 3 gusting 7 17.2
2019-Dec-08 13:30 025 2 gusting 6 17.2
2019-Dec-08 13:25 357 3 gusting 6 17.2
2019-Dec-08 13:20 338 4 gusting 9 17.2
2019-Dec-08 13:15 347 4 gusting 9 17.2
2019-Dec-08 13:10 357 4 gusting 9 17.2
2019-Dec-08 13:05 351 4 gusting 9 17.2
2019-Dec-08 13:00 340 4 gusting 13 17.2
2019-Dec-08 12:55 339 4 gusting 13 17.2
2019-Dec-08 12:50 354 4 gusting 10 17.2
2019-Dec-08 12:45 023 4 gusting 11 17.2
2019-Dec-08 12:40 034 4 gusting 11 17.2
2019-Dec-08 12:35 026 4 gusting 13 17.2
2019-Dec-08 12:30 025 5 gusting 14 17.2
2019-Dec-08 12:25 023 6 gusting 14 17.2
2019-Dec-08 12:20 014 5 gusting 11 17.2
2019-Dec-08 12:15 353 5 gusting 12 17.2
2019-Dec-08 12:10 349 4 gusting 12 17.2
2019-Dec-08 12:05 356 5 gusting 9 17.2
2019-Dec-08 12:00 357 5 gusting 10 17.2
2019-Dec-08 11:55 358 6 gusting 10 17.2
2019-Dec-08 11:50 354 5 gusting 10 17.8
2019-Dec-08 11:45 327 4 gusting 13 17.8
2019-Dec-08 11:40 316 4 gusting 13 17.8
2019-Dec-08 11:35 333 4 gusting 9 17.8
2019-Dec-08 11:30 344 5 gusting 11 17.2
2019-Dec-08 11:25 352 6 gusting 13 17.2
2019-Dec-08 11:20 344 6 gusting 13 17.2
2019-Dec-08 11:15 334 6 gusting 13 17.2
2019-Dec-08 11:10 335 6 gusting 13 17.2
2019-Dec-08 11:05 330 6 gusting 13 17.8
2019-Dec-08 11:00 336 5 gusting 12 17.8
2019-Dec-08 10:55 344 4 gusting 12 17.2
2019-Dec-08 10:50 319 3 gusting 9 17.8
2019-Dec-08 10:45 308 2 gusting 9 17.2
2019-Dec-08 10:40 312 2 gusting 6 17.2
2019-Dec-08 10:35 305 2 gusting 6 17.2
2019-Dec-08 10:30 301 1 gusting 6 17.2
2019-Dec-08 10:25 294 1 gusting 6 17.2
2019-Dec-08 10:20 284 1 gusting 6 17.2
2019-Dec-08 10:15 319 2 gusting 6 16.7
2019-Dec-08 10:10 341 2 gusting 6 16.7
2019-Dec-08 10:05 336 3 gusting 8 16.7
2019-Dec-08 10:00 319 2 gusting 8 16.7
2019-Dec-08 09:55 303 1 gusting 6 16.7
2019-Dec-08 09:50 309 1 gusting 5 16.7
2019-Dec-08 09:45 307 2 gusting 6 16.7
2019-Dec-08 09:40 303 2 gusting 6 16.7
2019-Dec-08 09:35 297 1 gusting 6 16.1
2019-Dec-08 09:30 293 1 gusting 6 16.1
2019-Dec-08 09:25 301 1 gusting 6 16.1
2019-Dec-08 09:20 298 1 gusting 6 16.1
2019-Dec-08 09:15 286 1 gusting 6 16.1
2019-Dec-08 09:10 285 0 gusting 4 16.1
2019-Dec-08 09:05 270 0 gusting 4 15.6
2019-Dec-08 09:00 234 0 gusting 3 15.0
2019-Dec-08 08:55 237 0 gusting 3 14.4
2019-Dec-08 08:50 225 1 gusting 4 14.4
2019-Dec-08 08:45 203 1 gusting 4 14.4
2019-Dec-08 08:40 205 1 gusting 3 13.9
2019-Dec-08 08:35 221 0 gusting 3 13.9
2019-Dec-08 08:30 230 0 gusting 3 13.3
2019-Dec-08 08:25 209 1 gusting 3 13.3
2019-Dec-08 08:20 196 1 gusting 3 12.8
2019-Dec-08 08:15 216 0 gusting 3 12.8
2019-Dec-08 08:10 237 0 gusting 3 12.2
2019-Dec-08 08:05 242 0 gusting 2 12.2
2019-Dec-08 08:00 232 0 gusting 2 11.7
2019-Dec-08 07:55 222 0 gusting 2 11.7
2019-Dec-08 07:50 217 11.1
2019-Dec-08 07:45 261 0 gusting 3 11.1
2019-Dec-08 07:40 248 0 gusting 3 10.6
2019-Dec-08 07:35 227 0 gusting 4 10.6
2019-Dec-08 07:30 247 1 gusting 4 10.6
2019-Dec-08 07:25 253 0 gusting 4 10.6
2019-Dec-08 07:20 246 0 gusting 3 10.0
2019-Dec-08 07:15 259 0 gusting 3 10.0
2019-Dec-08 07:10 273 0 gusting 3 9.4
2019-Dec-08 07:05 270 1 gusting 3 8.9
2019-Dec-08 07:00 266 1 gusting 3 8.9
2019-Dec-08 06:55 263 1 gusting 3 8.3
2019-Dec-08 06:50 258 0 gusting 3 8.3
2019-Dec-08 06:45 259 0 gusting 3 7.8
2019-Dec-08 06:40 254 0 gusting 1 7.8
2019-Dec-08 06:35 236 0 gusting 2 7.2
2019-Dec-08 06:30 238 0 gusting 2 7.2
2019-Dec-08 06:25 245 0 gusting 2 7.8
2019-Dec-08 06:20 261 0 gusting 2 7.8
2019-Dec-08 06:15 294 7.8
2019-Dec-08 06:10 266 7.8
2019-Dec-08 06:05 247 7.2
2019-Dec-08 06:00 244 7.2
2019-Dec-08 05:55 221 7.2
2019-Dec-08 05:50 272 0 gusting 3 7.2
2019-Dec-08 05:45 259 0 gusting 3 7.2
2019-Dec-08 05:40 237 0 gusting 5 7.2
2019-Dec-08 05:35 249 0 gusting 5 7.2
2019-Dec-08 05:30 255 1 gusting 4 7.2
2019-Dec-08 05:25 243 1 gusting 4 6.7
2019-Dec-08 05:20 226 1 gusting 3 6.7
2019-Dec-08 05:15 224 1 gusting 3 6.7
2019-Dec-08 05:10 230 1 gusting 5 6.7
2019-Dec-08 05:05 240 1 gusting 5 6.7
2019-Dec-08 05:00 254 0 gusting 2 6.7
2019-Dec-08 04:55 234 0 gusting 3 6.7
2019-Dec-08 04:50 235 0 gusting 3 6.7
2019-Dec-08 04:45 245 0 gusting 2 6.7
2019-Dec-08 04:40 226 0 gusting 3 6.7
2019-Dec-08 04:35 231 0 gusting 3 6.7
2019-Dec-08 04:30 232 1 gusting 5 6.7
2019-Dec-08 04:25 246 1 gusting 5 6.7
2019-Dec-08 04:20 246 1 gusting 4 6.7
2019-Dec-08 04:15 226 0 gusting 3 6.7
2019-Dec-08 04:10 231 0 gusting 3 6.1
2019-Dec-08 04:05 227 1 gusting 4 6.1
2019-Dec-08 04:00 229 1 gusting 4 6.1
2019-Dec-08 03:55 234 1 gusting 3 6.1
2019-Dec-08 03:50 235 1 gusting 3 6.7
2019-Dec-08 03:45 235 1 gusting 3 6.7
2019-Dec-08 03:40 238 0 gusting 3 6.7
2019-Dec-08 03:35 240 1 gusting 3 6.7
2019-Dec-08 03:30 233 0 gusting 3 6.7
2019-Dec-08 03:25 238 0 gusting 3 6.7
2019-Dec-08 03:20 246 0 gusting 2 6.7
2019-Dec-08 03:15 237 0 gusting 2 7.2
2019-Dec-08 03:10 227 0 gusting 2 7.2
2019-Dec-08 03:05 188 0 gusting 2 7.8
2019-Dec-08 03:00 147 0 gusting 3 7.8
2019-Dec-08 02:55 248 0 gusting 3 7.8
2019-Dec-08 02:50 273 0 gusting 2 7.8
2019-Dec-08 02:45 265 0 gusting 3 7.8
2019-Dec-08 02:40 244 0 gusting 3 7.8
2019-Dec-08 02:35 235 0 gusting 2 7.8
2019-Dec-08 02:30 236 0 gusting 2 7.8
2019-Dec-08 02:25 225 0 gusting 3 7.8
2019-Dec-08 02:20 225 0 gusting 3 7.8
2019-Dec-08 02:15 230 1 gusting 3 7.8
2019-Dec-08 02:10 235 0 gusting 3 8.3
2019-Dec-08 02:05 233 0 gusting 3 8.3
2019-Dec-08 02:00 235 0 gusting 2 8.3
2019-Dec-08 01:55 239 1 gusting 3 8.3
2019-Dec-08 01:50 239 1 gusting 3 8.3
2019-Dec-08 01:45 236 1 gusting 3 8.3
2019-Dec-08 01:40 240 1 gusting 3 8.3
2019-Dec-08 01:35 244 0 gusting 2 8.3
2019-Dec-08 01:30 222 0 gusting 3 8.9
2019-Dec-08 01:25 225 0 gusting 3 8.9
2019-Dec-08 01:20 239 0 gusting 3 8.9
2019-Dec-08 01:15 255 0 gusting 4 8.9
2019-Dec-08 01:10 251 0 gusting 4 8.9
2019-Dec-08 01:05 249 1 gusting 5 8.9
2019-Dec-08 01:00 265 1 gusting 5 8.9
2019-Dec-08 00:55 266 1 gusting 3 8.9
2019-Dec-08 00:50 261 1 gusting 3 8.9
2019-Dec-08 00:45 264 0 gusting 3 8.9
2019-Dec-08 00:40 276 0 gusting 3 8.9
2019-Dec-08 00:35 276 0 gusting 3 8.9
2019-Dec-08 00:30 260 1 gusting 3 8.9
2019-Dec-08 00:25 246 1 gusting 3 8.9
2019-Dec-08 00:20 249 0 gusting 2 8.9
2019-Dec-08 00:15 258 0 gusting 3 8.9
2019-Dec-08 00:10 251 0 gusting 3 8.9
2019-Dec-08 00:05 251 1 gusting 3 9.4
2019-Dec-08 00:00 258 1 gusting 5 9.4
2019-Dec-07 23:55 268 1 gusting 5 9.4
2019-Dec-07 23:50 273 0 gusting 5 8.9
2019-Dec-07 23:45 265 1 gusting 5 9.4
2019-Dec-07 23:40 250 1 gusting 5 9.4
2019-Dec-07 23:35 237 1 gusting 4 9.4
2019-Dec-07 23:30 236 1 gusting 3 9.4
2019-Dec-07 23:25 243 1 gusting 3 9.4
2019-Dec-07 23:20 240 1 gusting 3 9.4
2019-Dec-07 23:15 236 1 gusting 3 9.4
2019-Dec-07 23:10 246 1 gusting 5 9.4
2019-Dec-07 23:05 250 1 gusting 5 9.4
2019-Dec-07 23:00 246 1 gusting 4 9.4
2019-Dec-07 22:55 257 0 gusting 3 8.9
2019-Dec-07 22:50 239 0 gusting 6 9.4
2019-Dec-07 22:45 229 1 gusting 6 8.9
2019-Dec-07 22:40 224 1 gusting 6 8.9
2019-Dec-07 22:35 238 0 gusting 1 8.9
2019-Dec-07 22:30 249 0 gusting 1 8.9
2019-Dec-07 22:25 237 8.3
2019-Dec-07 22:20 241 8.3
2019-Dec-07 22:15 239 0 gusting 2 8.3
2019-Dec-07 22:10 225 8.3
2019-Dec-07 22:05 036 8.3
2019-Dec-07 22:00 308 0 gusting 1 8.3
2019-Dec-07 21:55 236 0 gusting 2 8.3
2019-Dec-07 21:50 230 0 gusting 2 8.3
2019-Dec-07 21:45 302 7.8
2019-Dec-07 21:40 053 7.8
2019-Dec-07 21:35 109 0 gusting 1 7.8
2019-Dec-07 21:30 114 0 gusting 1 7.8
2019-Dec-07 21:25 064 0 gusting 1 7.8
2019-Dec-07 21:20 054 0 gusting 1 7.8
2019-Dec-07 21:15 082 7.8
2019-Dec-07 21:10 095 8.3
2019-Dec-07 21:05 033 8.3
2019-Dec-07 21:00 049 8.3
2019-Dec-07 20:55 192 0 gusting 3 8.3
2019-Dec-07 20:50 216 1 gusting 3 8.9
2019-Dec-07 20:45 220 1 gusting 5 8.9
2019-Dec-07 20:40 221 2 gusting 5 8.9
2019-Dec-07 20:35 222 2 gusting 5 8.9
2019-Dec-07 20:30 228 1 gusting 4 9.4
2019-Dec-07 20:25 243 0 gusting 3 9.4
2019-Dec-07 20:20 240 0 gusting 2 10.0
2019-Dec-07 20:15 226 0 gusting 2 10.0
2019-Dec-07 20:10 242 0 gusting 4 10.0
2019-Dec-07 20:05 249 1 gusting 4 10.0
2019-Dec-07 20:00 239 1 gusting 4 10.0
2019-Dec-07 19:55 232 0 gusting 4 10.0
2019-Dec-07 19:50 246 0 gusting 3 10.0
2019-Dec-07 19:45 292 9.4
2019-Dec-07 19:40 300 10.0
2019-Dec-07 19:35 299 9.4
2019-Dec-07 19:30 257 0 gusting 3 10.0
2019-Dec-07 19:25 228 1 gusting 3 10.0
2019-Dec-07 19:20 222 0 gusting 3 10.0
2019-Dec-07 19:15 232 0 gusting 3 10.0
2019-Dec-07 19:10 241 0 gusting 3 10.0
2019-Dec-07 19:05 237 1 gusting 3 10.0
2019-Dec-07 19:00 230 1 gusting 3 10.0
2019-Dec-07 18:55 217 1 gusting 4 10.0
2019-Dec-07 18:50 218 2 gusting 4 10.0
2019-Dec-07 18:45 222 1 gusting 3 10.6
2019-Dec-07 18:40 230 1 gusting 3 10.6
2019-Dec-07 18:35 236 0 gusting 2 10.6
2019-Dec-07 18:30 228 0 gusting 1 10.6
2019-Dec-07 18:25 225 0 gusting 1 10.6
2019-Dec-07 18:20 225 0 gusting 3 10.6
2019-Dec-07 18:15 225 1 gusting 4 10.6
2019-Dec-07 18:10 225 2 gusting 4 10.6
2019-Dec-07 18:05 231 1 gusting 3 10.6
2019-Dec-07 18:00 237 0 gusting 2 11.1
2019-Dec-07 17:55 229 0 gusting 2 11.1
2019-Dec-07 17:50 244 0 gusting 2 10.6
2019-Dec-07 17:45 337 10.6
2019-Dec-07 17:40 327 10.6
2019-Dec-07 17:35 281 10.6
2019-Dec-07 17:30 265 10.6
2019-Dec-07 17:25 243 10.6
2019-Dec-07 17:20 210 0 gusting 3 10.6
2019-Dec-07 17:15 218 1 gusting 3 11.1
2019-Dec-07 17:10 224 1 gusting 3 11.1
2019-Dec-07 17:05 225 1 gusting 3 11.7
2019-Dec-07 17:00 225 0 gusting 3 11.7
2019-Dec-07 16:55 230 11.7
2019-Dec-07 16:50 352 11.7
2019-Dec-07 16:45 330 0 gusting 2 11.7
2019-Dec-07 16:40 171 0 gusting 2 11.7
2019-Dec-07 16:35 125 0 gusting 2 11.7
2019-Dec-07 16:30 058 0 gusting 1 11.7
2019-Dec-07 16:25 225 0 gusting 2 12.2
2019-Dec-07 16:20 225 0 gusting 2 12.2
2019-Dec-07 16:15 225 0 gusting 1 12.2
2019-Dec-07 16:10 046 12.2
2019-Dec-07 16:05 183 12.8
2019-Dec-07 16:00 213 0 gusting 1 12.8
2019-Dec-07 15:55 209 0 gusting 1 13.3
2019-Dec-07 15:50 201 0 gusting 1 13.3
2019-Dec-07 15:45 036 13.3
2019-Dec-07 15:40 249 13.3
2019-Dec-07 15:35 225 0 gusting 2 13.3
2019-Dec-07 15:30 215 0 gusting 2 13.9
2019-Dec-07 15:25 181 0 gusting 2 13.9
2019-Dec-07 15:20 106 14.4
2019-Dec-07 15:15 137 14.4
2019-Dec-07 15:10 181 14.4
2019-Dec-07 15:05 181 14.4
2019-Dec-07 15:00 181 14.4
2019-Dec-07 14:55 001 15.0
2019-Dec-07 14:50 020 15.0
2019-Dec-07 14:45 017 0 gusting 3 15.0
2019-Dec-07 14:40 356 0 gusting 3 15.0
2019-Dec-07 14:35 351 0 gusting 3 15.0
2019-Dec-07 14:30 357 15.0
2019-Dec-07 14:25 328 15.0
2019-Dec-07 14:20 309 15.0
2019-Dec-07 14:15 326 15.6
2019-Dec-07 14:10 336 15.6
2019-Dec-07 14:05 356 15.6
2019-Dec-07 14:00 166 15.6
2019-Dec-07 13:55 181 15.6
2019-Dec-07 13:50 143 15.6
2019-Dec-07 13:45 154 15.6
2019-Dec-07 13:40 157 15.6
2019-Dec-07 13:35 120 15.6
2019-Dec-07 13:30 093 15.6
2019-Dec-07 13:25 110 16.1
2019-Dec-07 13:20 161 15.6
2019-Dec-07 13:15 150 15.6
2019-Dec-07 13:10 143 15.6
2019-Dec-07 13:05 189 15.6
2019-Dec-07 13:00 237 15.6